createdAt,value
2017-06-22T00:01:14.549Z,0
2017-06-22T00:03:39.230Z,0
2017-06-22T00:05:55.455Z,0
2017-06-22T00:08:11.665Z,0
2017-06-22T00:10:27.947Z,0
2017-06-22T00:12:52.622Z,0
2017-06-22T00:17:19.343Z,0
2017-06-22T00:23:22.445Z,0
2017-06-22T00:25:47.194Z,0
2017-06-22T00:28:11.896Z,0
2017-06-22T00:30:36.599Z,0
2017-06-22T00:32:52.815Z,0
2017-06-22T00:35:17.482Z,0
2017-06-22T00:37:42.081Z,0
2017-06-22T00:40:06.776Z,0
2017-06-22T00:42:31.466Z,0
2017-06-22T00:44:47.704Z,0
2017-06-22T00:49:23.070Z,0
2017-06-22T00:51:39.247Z,0
2017-06-22T00:53:55.415Z,0
2017-06-22T00:56:20.019Z,0
2017-06-22T00:58:44.709Z,0
2017-06-22T01:01:09.295Z,0
2017-06-22T01:03:33.893Z,0
2017-06-22T01:05:50.089Z,0
2017-06-22T01:10:16.693Z,0
2017-06-22T01:14:51.902Z,0
2017-06-22T01:17:16.505Z,0
2017-06-22T01:19:41.086Z,0
2017-06-22T01:21:57.202Z,0
2017-06-22T01:24:21.761Z,0
2017-06-22T01:26:46.372Z,0
2017-06-22T01:29:10.905Z,0
2017-06-22T01:31:35.450Z,0
2017-06-22T01:33:51.572Z,0
2017-06-22T01:36:16.123Z,0
2017-06-22T01:38:32.256Z,0
2017-06-22T01:40:56.814Z,0
2017-06-22T01:43:21.412Z,0
2017-06-22T01:45:46.003Z,0
2017-06-22T01:48:02.135Z,0
2017-06-22T01:50:26.676Z,0
2017-06-22T01:52:51.195Z,0
2017-06-22T01:55:15.772Z,0
2017-06-22T01:57:40.276Z,0
2017-06-22T02:00:04.859Z,0
2017-06-22T02:04:31.455Z,0
2017-06-22T02:06:56.005Z,0
2017-06-22T02:11:22.733Z,0
2017-06-22T02:13:47.272Z,0
2017-06-22T02:16:11.858Z,0
2017-06-22T02:18:36.456Z,0
2017-06-22T02:21:01.054Z,0
2017-06-22T02:23:08.719Z,0
2017-06-22T02:25:33.242Z,0
2017-06-22T02:27:57.854Z,0
2017-06-22T02:30:22.432Z,0
2017-06-22T02:34:48.996Z,0
2017-06-22T02:37:13.580Z,0
2017-06-22T02:39:38.174Z,0
2017-06-22T02:42:02.762Z,0
2017-06-22T02:44:27.352Z,0
2017-06-22T02:46:43.385Z,0
2017-06-22T02:48:59.450Z,0
2017-06-22T02:51:23.934Z,0
2017-06-22T02:53:48.432Z,0
2017-06-22T02:56:12.905Z,0
2017-06-22T03:00:47.944Z,0
2017-06-22T03:03:12.450Z,0
2017-06-22T03:05:19.980Z,0
2017-06-22T03:07:44.449Z,0
2017-06-22T03:10:08.929Z,0
2017-06-22T03:12:33.412Z,0
2017-06-22T03:14:57.897Z,0
2017-06-22T03:17:22.399Z,0
2017-06-22T03:19:46.884Z,0
2017-06-22T03:22:11.382Z,0
2017-06-22T03:24:35.871Z,0
2017-06-22T03:27:00.365Z,0
2017-06-22T03:29:24.870Z,5
2017-06-22T03:33:51.376Z,5
2017-06-22T03:36:15.921Z,5
2017-06-22T03:38:40.386Z,5
2017-06-22T03:41:04.900Z,10
2017-06-22T03:43:29.388Z,10
2017-06-22T03:45:53.891Z,10
2017-06-22T03:48:18.372Z,10
2017-06-22T03:50:34.429Z,15
2017-06-22T03:52:50.502Z,15
2017-06-22T03:55:14.943Z,15
2017-06-22T03:57:39.452Z,20
2017-06-22T04:00:03.940Z,20
2017-06-22T04:02:28.428Z,20
2017-06-22T04:04:52.922Z,25
2017-06-22T04:07:17.528Z,25
2017-06-22T04:09:42.116Z,30
2017-06-22T04:12:06.734Z,30
2017-06-22T04:14:22.849Z,35
2017-06-22T04:16:47.400Z,35
2017-06-22T04:19:12.013Z,40
2017-06-22T04:21:36.609Z,45
2017-06-22T04:24:01.198Z,65
2017-06-22T04:26:25.814Z,70
2017-06-22T04:28:50.550Z,70
2017-06-22T04:31:15.383Z,75
2017-06-22T04:35:42.532Z,85
2017-06-22T04:38:07.758Z,90
2017-06-22T04:40:33.101Z,100
2017-06-22T04:42:41.413Z,105
2017-06-22T04:47:00.639Z,115
2017-06-22T04:49:26.342Z,120
2017-06-22T04:51:53.081Z,125
2017-06-22T04:54:10.390Z,130
2017-06-22T04:58:31.125Z,135
2017-06-22T05:00:57.141Z,145
2017-06-22T05:03:14.747Z,150
2017-06-22T05:07:34.833Z,160
2017-06-22T05:09:52.707Z,170
2017-06-22T05:12:19.159Z,175
2017-06-22T05:16:48.264Z,190
2017-06-22T05:23:20.055Z,205
2017-06-22T05:25:46.935Z,215
2017-06-22T05:30:16.512Z,225
2017-06-22T05:32:43.579Z,230
2017-06-22T05:35:10.638Z,240
2017-06-22T05:37:20.571Z,250
2017-06-22T05:39:39.146Z,255
2017-06-22T05:42:06.449Z,270
2017-06-22T05:44:33.811Z,280
2017-06-22T05:46:52.569Z,295
2017-06-22T05:51:22.724Z,335
2017-06-22T05:55:52.990Z,685
2017-06-22T05:58:20.627Z,1400
2017-06-22T06:02:51.153Z,1240
2017-06-22T06:05:18.982Z,1285
2017-06-22T06:07:46.882Z,1420
2017-06-22T06:10:14.724Z,1355
2017-06-22T06:12:42.607Z,1200
2017-06-22T06:15:10.499Z,1425
2017-06-22T06:17:39.514Z,1455
2017-06-22T06:20:07.508Z,1410
2017-06-22T06:22:36.509Z,1390
2017-06-22T06:26:58.809Z,1360
2017-06-22T06:29:27.011Z,1400
2017-06-22T06:31:57.216Z,545
2017-06-22T06:34:25.382Z,465
2017-06-22T06:36:54.585Z,465
2017-06-22T06:39:22.749Z,475
2017-06-22T06:41:50.796Z,475
2017-06-22T06:46:21.777Z,440
2017-06-22T06:48:49.698Z,440
2017-06-22T06:51:17.512Z,465
2017-06-22T06:53:45.247Z,470
2017-06-22T06:56:12.760Z,530
2017-06-22T06:58:40.069Z,520
2017-06-22T07:01:07.299Z,520
2017-06-22T07:03:34.408Z,550
2017-06-22T07:06:01.315Z,550
2017-06-22T07:08:28.264Z,475
2017-06-22T07:10:55.094Z,375
2017-06-22T07:13:04.737Z,390
2017-06-22T07:15:31.446Z,445
2017-06-22T07:17:49.488Z,515
2017-06-22T07:20:16.109Z,590
2017-06-22T07:24:45.361Z,665
2017-06-22T07:27:12.090Z,580
2017-06-22T07:29:38.841Z,625
2017-06-22T07:32:05.573Z,695
2017-06-22T07:34:32.343Z,740
2017-06-22T07:36:59.036Z,655
2017-06-22T07:39:25.777Z,615
2017-06-22T07:41:52.532Z,670
2017-06-22T07:44:19.301Z,535
2017-06-22T07:46:46.031Z,635
2017-06-22T07:51:14.871Z,535
2017-06-22T07:53:41.658Z,525
2017-06-22T07:58:10.503Z,505
2017-06-22T08:00:37.291Z,485
2017-06-22T08:03:04.170Z,460
2017-06-22T08:05:22.409Z,440
2017-06-22T08:07:49.258Z,395
2017-06-22T08:10:16.100Z,415
2017-06-22T08:12:43.039Z,400
2017-06-22T08:15:09.914Z,400
2017-06-22T08:17:36.848Z,400
2017-06-22T08:22:14.623Z,390
2017-06-22T08:24:41.611Z,385
2017-06-22T08:27:08.568Z,390
2017-06-22T08:29:39.150Z,380
2017-06-22T08:33:43.412Z,375
2017-06-22T08:36:12.414Z,375
2017-06-22T08:38:39.420Z,375
2017-06-22T08:41:23.093Z,370
2017-06-22T08:47:50.028Z,400
2017-06-22T08:50:24.090Z,415
2017-06-22T08:52:51.925Z,395
2017-06-22T08:55:33.626Z,395
2017-06-22T08:58:07.154Z,380
2017-06-22T09:00:33.918Z,385
2017-06-22T09:05:03.326Z,365
2017-06-22T09:07:30.356Z,365
2017-06-22T09:09:56.911Z,365
2017-06-22T09:12:23.754Z,360
2017-06-22T09:16:53.375Z,350
2017-06-22T09:19:20.180Z,360
2017-06-22T09:21:46.937Z,350
2017-06-22T09:24:13.951Z,320
2017-06-22T09:26:32.198Z,315
2017-06-22T09:28:58.896Z,315
2017-06-22T09:31:25.619Z,310
2017-06-22T09:33:43.703Z,285
2017-06-22T09:38:21.983Z,285
2017-06-22T09:40:48.668Z,280
2017-06-22T09:43:07.329Z,290
2017-06-22T09:45:33.829Z,285
2017-06-22T09:49:55.656Z,285
2017-06-22T09:52:22.385Z,285
2017-06-22T09:54:49.243Z,280
2017-06-22T09:57:07.289Z,270
2017-06-22T09:59:26.204Z,265
2017-06-22T10:01:52.796Z,255
2017-06-22T10:05:55.999Z,245
2017-06-22T10:08:22.396Z,240
2017-06-22T10:10:49.024Z,230
2017-06-22T10:13:07.840Z,225
2017-06-22T10:15:34.327Z,225
2017-06-22T10:20:03.829Z,215
2017-06-22T10:22:21.897Z,210
2017-06-22T10:24:48.370Z,210
2017-06-22T10:27:14.587Z,205
2017-06-22T10:29:40.766Z,205
2017-06-22T10:32:06.982Z,205
2017-06-22T10:34:24.597Z,200
2017-06-22T10:36:50.783Z,200
2017-06-22T10:39:16.972Z,190
2017-06-22T10:41:43.127Z,190
2017-06-22T10:44:09.312Z,190
2017-06-22T10:46:35.463Z,180
2017-06-22T10:49:01.660Z,180
2017-06-22T10:51:19.272Z,180
2017-06-22T10:53:45.406Z,180
2017-06-22T10:56:11.572Z,175
2017-06-22T10:58:38.876Z,170
2017-06-22T11:01:05.080Z,170
2017-06-22T11:03:31.272Z,170
2017-06-22T11:05:57.251Z,165
2017-06-22T11:08:23.327Z,165
2017-06-22T11:10:49.358Z,170
2017-06-22T11:13:17.530Z,170
2017-06-22T11:15:43.655Z,165
2017-06-22T11:18:09.732Z,165
2017-06-22T11:20:35.900Z,160
2017-06-22T11:23:02.462Z,150
2017-06-22T11:25:29.425Z,145
2017-06-22T11:27:55.558Z,150
2017-06-22T11:30:28.546Z,150
2017-06-22T11:32:54.550Z,155
2017-06-22T11:35:27.267Z,150
2017-06-22T11:37:53.303Z,140
2017-06-22T11:40:19.332Z,140
2017-06-22T11:42:45.364Z,145
2017-06-22T11:45:11.388Z,135
2017-06-22T11:47:37.379Z,140
2017-06-22T11:50:04.379Z,140
2017-06-22T11:52:22.836Z,145
2017-06-22T11:54:31.721Z,145
2017-06-22T11:56:58.681Z,145
2017-06-22T11:59:24.616Z,145
2017-06-22T12:03:35.862Z,140
2017-06-22T12:06:01.858Z,140
2017-06-22T12:08:19.304Z,135
2017-06-22T12:10:36.735Z,120
2017-06-22T12:12:54.128Z,120
2017-06-22T12:15:20.118Z,115
2017-06-22T12:17:47.138Z,110
2017-06-22T12:20:04.554Z,105
2017-06-22T12:22:21.901Z,100
2017-06-22T12:24:47.784Z,100
2017-06-22T12:27:13.711Z,100
2017-06-22T12:29:39.605Z,105
2017-06-22T12:32:05.486Z,100
2017-06-22T12:34:31.375Z,100
2017-06-22T12:36:57.249Z,100
2017-06-22T12:39:23.056Z,100
2017-06-22T12:41:48.861Z,100
2017-06-22T12:44:14.681Z,100
2017-06-22T12:46:40.499Z,95
2017-06-22T12:49:06.296Z,95
2017-06-22T12:51:32.056Z,90
2017-06-22T12:53:49.274Z,80
2017-06-22T12:56:17.014Z,75
2017-06-22T12:58:43.771Z,65
2017-06-22T13:01:01.960Z,60
2017-06-22T13:03:27.724Z,50
2017-06-22T13:05:53.456Z,50
2017-06-22T13:08:19.160Z,45
2017-06-22T13:10:44.787Z,40
2017-06-22T13:13:02.888Z,35
2017-06-22T13:15:30.550Z,30
2017-06-22T13:17:56.100Z,25
2017-06-22T13:20:21.696Z,25
2017-06-22T13:22:47.292Z,20
2017-06-22T13:25:14.853Z,20
2017-06-22T13:27:41.372Z,20
2017-06-22T13:30:07.879Z,15
2017-06-22T13:34:44.183Z,15
2017-06-22T13:37:10.617Z,15
2017-06-22T13:39:51.902Z,15
2017-06-22T13:42:17.279Z,15
2017-06-22T13:44:42.643Z,15
2017-06-22T13:47:09.031Z,10
2017-06-22T13:49:27.868Z,10
2017-06-22T13:54:04.081Z,15
2017-06-22T13:56:30.492Z,15
2017-06-22T14:00:41.025Z,15
2017-06-22T14:02:57.850Z,20
2017-06-22T14:07:25.499Z,20
2017-06-22T14:09:51.990Z,25
2017-06-22T14:12:17.366Z,25
2017-06-22T14:14:42.748Z,25
2017-06-22T14:17:08.227Z,25
2017-06-22T14:19:34.150Z,30
2017-06-22T14:21:59.549Z,30
2017-06-22T14:24:25.939Z,35
2017-06-22T14:26:52.255Z,40
2017-06-22T14:29:18.732Z,45
2017-06-22T14:31:45.109Z,45
2017-06-22T14:34:10.457Z,50
2017-06-22T14:36:36.091Z,50
2017-06-22T14:39:05.162Z,50
2017-06-22T14:41:32.172Z,50
2017-06-22T14:44:14.639Z,50
2017-06-22T14:46:39.732Z,50
2017-06-22T14:49:06.545Z,50
2017-06-22T14:51:31.591Z,50
2017-06-22T14:53:57.804Z,45
2017-06-22T14:56:22.807Z,45
2017-06-22T14:58:51.002Z,45
2017-06-22T15:01:18.430Z,50
2017-06-22T15:03:44.252Z,50
2017-06-22T15:06:09.634Z,55
2017-06-22T15:08:34.993Z,60
2017-06-22T15:11:00.864Z,65
2017-06-22T15:13:26.718Z,65
2017-06-22T15:15:52.758Z,70
2017-06-22T15:18:18.263Z,70
2017-06-22T15:20:43.631Z,70
2017-06-22T15:23:09.048Z,70
2017-06-22T15:25:34.540Z,70
2017-06-22T15:28:00.048Z,70
2017-06-22T15:30:25.591Z,70
2017-06-22T15:32:51.071Z,80
2017-06-22T15:35:16.602Z,80
2017-06-22T15:37:33.578Z,95
2017-06-22T15:39:59.151Z,100
2017-06-22T15:42:24.663Z,100
2017-06-22T15:44:50.208Z,95
2017-06-22T15:47:15.819Z,95
2017-06-22T15:49:41.321Z,100
2017-06-22T15:53:43.528Z,95
2017-06-22T15:56:09.176Z,95
2017-06-22T15:58:34.727Z,90
2017-06-22T16:03:11.206Z,90
2017-06-22T16:05:28.308Z,85
2017-06-22T16:07:54.892Z,85
2017-06-22T16:10:11.930Z,80
2017-06-22T16:12:37.587Z,75
2017-06-22T16:15:03.232Z,70
2017-06-22T16:17:28.892Z,65
2017-06-22T16:19:54.545Z,60
2017-06-22T16:22:20.110Z,60
2017-06-22T16:24:45.709Z,55
2017-06-22T16:27:11.820Z,55
2017-06-22T16:29:37.963Z,55
2017-06-22T16:32:03.519Z,50
2017-06-22T16:34:29.032Z,50
2017-06-22T16:36:54.696Z,50
2017-06-22T16:39:21.284Z,50
2017-06-22T16:41:46.762Z,50
2017-06-22T16:44:03.714Z,50
2017-06-22T16:46:20.783Z,50
2017-06-22T16:50:56.663Z,50
2017-06-22T16:53:22.111Z,50
2017-06-22T16:55:47.570Z,45
2017-06-22T16:58:12.984Z,45
2017-06-22T17:00:38.403Z,45
2017-06-22T17:03:03.785Z,40
2017-06-22T17:05:29.165Z,40
2017-06-22T17:07:54.588Z,40
2017-06-22T17:10:11.532Z,40
2017-06-22T17:12:28.398Z,40
2017-06-22T17:14:53.821Z,40
2017-06-22T17:17:19.209Z,35
2017-06-22T17:19:44.601Z,35
2017-06-22T17:22:09.997Z,35
2017-06-22T17:26:28.638Z,30
2017-06-22T17:28:54.041Z,25
2017-06-22T17:31:19.478Z,25
2017-06-22T17:33:36.354Z,20
2017-06-22T17:38:03.487Z,15
2017-06-22T17:40:28.887Z,15
2017-06-22T17:42:54.218Z,10
2017-06-22T17:45:19.666Z,10
2017-06-22T17:47:45.102Z,10
2017-06-22T17:50:10.356Z,5
2017-06-22T17:54:37.907Z,5
2017-06-22T17:57:03.227Z,5
2017-06-22T17:59:28.499Z,5
2017-06-22T18:01:53.748Z,5
2017-06-22T18:04:19.077Z,5
2017-06-22T18:06:44.363Z,10
2017-06-22T18:09:09.606Z,10
2017-06-22T18:11:34.844Z,15
2017-06-22T18:14:00.092Z,15
2017-06-22T18:16:25.296Z,15
2017-06-22T18:18:50.531Z,20
2017-06-22T18:21:15.767Z,20
2017-06-22T18:23:41.032Z,20
2017-06-22T18:26:06.276Z,20
2017-06-22T18:28:23.026Z,20
2017-06-22T18:30:48.266Z,20
2017-06-22T18:33:13.528Z,20
2017-06-22T18:35:39.859Z,20
2017-06-22T18:38:05.001Z,15
2017-06-22T18:40:30.360Z,15
2017-06-22T18:42:55.694Z,15
2017-06-22T18:45:21.947Z,15
2017-06-22T18:47:47.104Z,15
2017-06-22T18:50:12.268Z,10
2017-06-22T18:52:37.475Z,10
2017-06-22T18:55:02.666Z,10
2017-06-22T18:57:27.848Z,10
2017-06-22T18:59:53.006Z,10
2017-06-22T19:02:18.194Z,10
2017-06-22T19:04:43.384Z,10
2017-06-22T19:06:51.577Z,10
2017-06-22T19:09:08.250Z,10
2017-06-22T19:11:33.424Z,5
2017-06-22T19:13:50.121Z,5
2017-06-22T19:16:15.313Z,5
2017-06-22T19:18:42.445Z,0
2017-06-22T19:21:07.622Z,0
2017-06-22T19:23:32.732Z,0
2017-06-22T19:25:57.825Z,0
2017-06-22T19:28:16.448Z,0
2017-06-22T19:35:04.042Z,0
2017-06-22T19:38:56.495Z,0
2017-06-22T19:41:21.634Z,0
2017-06-22T19:45:48.340Z,0
2017-06-22T19:48:13.444Z,0
2017-06-22T19:50:30.044Z,0
2017-06-22T19:52:55.143Z,0
2017-06-22T19:55:21.259Z,0
2017-06-22T19:57:37.838Z,0
2017-06-22T19:59:54.409Z,0
2017-06-22T20:02:19.557Z,0
2017-06-22T20:04:44.598Z,0
2017-06-22T20:09:11.277Z,0
2017-06-22T20:11:49.186Z,0
2017-06-22T20:14:14.216Z,0
2017-06-22T20:16:30.725Z,0
2017-06-22T20:18:55.819Z,0
2017-06-22T20:21:21.838Z,0
2017-06-22T20:23:46.858Z,0
2017-06-22T20:26:11.815Z,0
2017-06-22T20:28:29.671Z,0
2017-06-22T20:31:10.549Z,0
2017-06-22T20:33:36.598Z,0
2017-06-22T20:36:08.560Z,0
2017-06-22T20:38:48.631Z,0
2017-06-22T20:41:13.731Z,0
2017-06-22T20:43:38.729Z,0
2017-06-22T20:48:14.551Z,0
2017-06-22T20:50:39.494Z,0
2017-06-22T20:53:04.488Z,0
2017-06-22T20:55:20.989Z,0
2017-06-22T20:57:45.884Z,0
2017-06-22T21:00:09.260Z,0
2017-06-22T21:02:25.771Z,0
2017-06-22T21:04:50.762Z,0
2017-06-22T21:07:15.769Z,0
2017-06-22T21:09:40.792Z,0
2017-06-22T21:12:06.694Z,0
2017-06-22T21:16:33.831Z,0
2017-06-22T21:18:59.791Z,0
2017-06-22T21:21:24.777Z,0
2017-06-22T21:26:00.347Z,0
2017-06-22T21:28:16.841Z,0
2017-06-22T21:30:41.754Z,0
2017-06-22T21:35:17.366Z,0
2017-06-22T21:37:42.315Z,0
2017-06-22T21:40:07.248Z,0
2017-06-22T21:42:32.146Z,0
2017-06-22T21:46:59.153Z,0
2017-06-22T21:51:34.695Z,0
2017-06-22T21:53:59.654Z,0
2017-06-22T21:56:16.050Z,0
2017-06-22T21:58:40.847Z,0
2017-06-22T22:01:05.754Z,0
2017-06-22T22:03:22.170Z,0
2017-06-22T22:05:47.056Z,0
2017-06-22T22:08:11.853Z,0
2017-06-22T22:10:36.639Z,0
2017-06-22T22:13:01.446Z,0
2017-06-22T22:15:09.244Z,0
2017-06-22T22:17:25.575Z,0
2017-06-22T22:19:41.866Z,0
2017-06-22T22:21:58.151Z,0
2017-06-22T22:24:22.926Z,0
2017-06-22T22:26:47.682Z,0
2017-06-22T22:29:12.546Z,0
2017-06-22T22:31:37.330Z,0
2017-06-22T22:34:02.139Z,0
2017-06-22T22:36:27.036Z,0
2017-06-22T22:38:51.837Z,0
2017-06-22T22:41:16.638Z,0
2017-06-22T22:43:41.446Z,0
2017-06-22T22:46:06.354Z,0
2017-06-22T22:48:31.142Z,0
2017-06-22T22:50:55.925Z,0
2017-06-22T22:55:31.360Z,0
2017-06-22T22:57:56.202Z,0
2017-06-22T23:00:20.988Z,0
2017-06-22T23:02:37.309Z,0
2017-06-22T23:05:02.074Z,0
2017-06-22T23:07:26.767Z,0
2017-06-22T23:09:51.472Z,0
2017-06-22T23:12:16.284Z,0
2017-06-22T23:14:41.071Z,0
2017-06-22T23:17:05.874Z,0
2017-06-22T23:19:30.668Z,0
2017-06-22T23:21:55.476Z,0
2017-06-22T23:24:11.765Z,0
2017-06-22T23:26:36.570Z,0
2017-06-22T23:31:03.580Z,0
2017-06-22T23:33:28.445Z,0
2017-06-22T23:35:53.226Z,0
2017-06-22T23:38:17.933Z,0
2017-06-22T23:40:42.729Z,0
2017-06-22T23:43:07.425Z,0
2017-06-22T23:47:42.875Z,0
2017-06-22T23:50:07.579Z,0
2017-06-22T23:52:23.879Z,0
2017-06-22T23:54:48.680Z,0
2017-06-22T23:59:16.462Z,0
